createdAt,value
2023-04-02T00:00:46.671Z,25.00
2023-04-02T00:01:46.714Z,25.00
2023-04-02T00:02:46.698Z,0.00
2023-04-02T00:03:46.904Z,0.00
2023-04-02T00:04:46.642Z,0.00
2023-04-02T00:05:46.639Z,0.00
2023-04-02T00:06:46.663Z,0.00
2023-04-02T00:07:46.632Z,0.00
2023-04-02T00:08:46.621Z,0.00
2023-04-02T00:09:46.620Z,14.69
2023-04-02T00:10:46.643Z,25.00
2023-04-02T00:11:46.627Z,26.88
2023-04-02T00:12:46.650Z,25.90
2023-04-02T00:13:46.628Z,25.00
2023-04-02T00:14:46.684Z,27.44
2023-04-02T00:15:46.620Z,26.19
2023-04-02T00:16:46.733Z,28.12
2023-04-02T00:17:46.618Z,27.41
2023-04-02T00:18:46.613Z,26.83
2023-04-02T00:19:46.614Z,25.00
2023-04-02T00:20:46.596Z,26.24
2023-04-02T00:21:46.593Z,27.04
2023-04-02T00:22:46.605Z,26.61
2023-04-02T00:23:46.585Z,25.00
2023-04-02T00:24:46.581Z,25.66
2023-04-02T00:25:46.569Z,25.80
2023-04-02T00:26:46.567Z,26.40
2023-04-02T00:27:46.564Z,26.18
2023-04-02T00:28:46.591Z,28.97
2023-04-02T00:29:46.559Z,25.15
2023-04-02T00:30:46.572Z,28.76
2023-04-02T00:31:46.673Z,25.00
2023-04-02T00:32:46.654Z,27.25
2023-04-02T00:33:46.630Z,25.00
2023-04-02T00:34:46.648Z,26.43
2023-04-02T00:35:46.683Z,29.25
2023-04-02T00:36:46.690Z,26.50
2023-04-02T00:37:46.712Z,25.76
2023-04-02T00:38:48.278Z,28.50
2023-04-02T00:39:46.722Z,25.79
2023-04-02T00:40:46.723Z,27.01
2023-04-02T00:41:46.734Z,25.00
2023-04-02T00:42:46.723Z,25.30
2023-04-02T00:43:46.747Z,27.79
2023-04-02T00:44:46.737Z,27.26
2023-04-02T00:45:46.714Z,27.44
2023-04-02T00:46:46.732Z,29.71
2023-04-02T00:47:46.728Z,27.83
2023-04-02T00:48:46.684Z,28.81
2023-04-02T00:49:46.681Z,26.70
2023-04-02T00:50:46.664Z,26.24
2023-04-02T00:51:46.654Z,27.60
2023-04-02T00:52:46.675Z,27.84
2023-04-02T00:53:46.630Z,27.55
2023-04-02T00:54:46.614Z,28.37
2023-04-02T00:55:46.602Z,27.74
2023-04-02T00:56:46.624Z,25.58
2023-04-02T00:57:46.589Z,25.92
2023-04-02T00:58:46.585Z,26.57
2023-04-02T00:59:46.578Z,27.41
2023-04-02T01:00:46.589Z,26.48
2023-04-02T01:01:46.598Z,25.04
2023-04-02T01:02:46.682Z,26.93
2023-04-02T01:03:46.776Z,27.11
2023-04-02T01:04:46.536Z,29.26
2023-04-02T01:05:46.519Z,25.13
2023-04-02T01:06:46.516Z,25.48
2023-04-02T01:07:46.564Z,28.02
2023-04-02T01:08:46.502Z,26.73
2023-04-02T01:09:46.500Z,25.56
2023-04-02T01:10:46.482Z,27.61
2023-04-02T01:11:46.487Z,25.08
2023-04-02T01:12:46.484Z,26.65
2023-04-02T01:13:46.477Z,30.30
2023-04-02T01:14:46.454Z,25.39
2023-04-02T01:15:46.525Z,27.34
2023-04-02T01:16:46.472Z,28.11
2023-04-02T01:17:46.470Z,30.01
2023-04-02T01:18:46.477Z,28.65
2023-04-02T01:19:46.425Z,31.39
2023-04-02T01:20:46.416Z,27.35
2023-04-02T01:21:46.417Z,31.10
2023-04-02T01:22:46.427Z,25.64
2023-04-02T01:23:46.385Z,28.13
2023-04-02T01:24:46.385Z,28.27
2023-04-02T01:25:46.403Z,28.90
2023-04-02T01:26:46.370Z,26.38
2023-04-02T01:27:46.373Z,27.43
2023-04-02T01:28:46.365Z,26.85
2023-04-02T01:29:46.389Z,26.33
2023-04-02T01:30:46.345Z,28.92
2023-04-02T01:31:46.437Z,28.34
2023-04-02T01:32:46.433Z,28.88
2023-04-02T01:33:46.323Z,27.44
2023-04-02T01:34:46.325Z,25.20
2023-04-02T01:35:46.419Z,26.67
2023-04-02T01:36:46.320Z,26.87
2023-04-02T01:37:46.306Z,28.70
2023-04-02T01:38:46.320Z,26.66
2023-04-02T01:39:46.342Z,27.54
2023-04-02T01:40:46.391Z,28.28
2023-04-02T01:41:46.398Z,29.73
2023-04-02T01:42:46.393Z,27.13
2023-04-02T01:43:46.400Z,26.52
2023-04-02T01:44:46.415Z,31.22
2023-04-02T01:45:46.460Z,25.98
2023-04-02T01:46:46.523Z,29.10
2023-04-02T01:47:46.528Z,27.97
2023-04-02T01:48:46.503Z,27.70
2023-04-02T01:49:46.526Z,28.24
2023-04-02T01:50:46.506Z,26.58
2023-04-02T01:51:46.523Z,29.12
2023-04-02T01:52:46.527Z,26.67
2023-04-02T01:53:46.571Z,27.20
2023-04-02T01:54:46.638Z,27.75
2023-04-02T01:55:46.592Z,28.18
2023-04-02T01:56:46.616Z,28.75
2023-04-02T01:57:46.627Z,28.08
2023-04-02T01:58:46.648Z,26.98
2023-04-02T01:59:46.703Z,27.73
2023-04-02T02:00:46.740Z,28.10
2023-04-02T02:01:46.751Z,26.90
2023-04-02T02:02:46.824Z,25.98
2023-04-02T02:03:46.783Z,28.38
2023-04-02T02:04:46.801Z,29.90
2023-04-02T02:05:46.812Z,29.13
2023-04-02T02:06:46.800Z,27.50
2023-04-02T02:07:46.824Z,29.59
2023-04-02T02:08:46.860Z,25.50
2023-04-02T02:09:46.883Z,25.55
2023-04-02T02:10:46.878Z,28.72
2023-04-02T02:11:46.892Z,29.48
2023-04-02T02:12:46.904Z,26.82
2023-04-02T02:13:46.917Z,28.56
2023-04-02T02:14:46.992Z,28.79
2023-04-02T02:15:46.961Z,26.14
2023-04-02T02:16:47.032Z,28.44
2023-04-02T02:17:47.065Z,29.64
2023-04-02T02:18:47.013Z,29.33
2023-04-02T02:19:47.042Z,28.39
2023-04-02T02:20:47.118Z,27.25
2023-04-02T02:21:47.079Z,25.05
2023-04-02T02:22:47.135Z,29.97
2023-04-02T02:23:47.137Z,31.13
2023-04-02T02:24:47.130Z,26.60
2023-04-02T02:25:47.185Z,26.37
2023-04-02T02:26:47.188Z,31.65
2023-04-02T02:27:47.235Z,27.78
2023-04-02T02:28:47.227Z,28.21
2023-04-02T02:29:47.240Z,25.66
2023-04-02T02:30:47.254Z,28.12
2023-04-02T02:31:47.342Z,29.09
2023-04-02T02:32:47.313Z,27.79
2023-04-02T02:33:47.311Z,25.00
2023-04-02T02:34:47.308Z,30.42
2023-04-02T02:35:47.333Z,28.96
2023-04-02T02:36:47.359Z,27.70
2023-04-02T02:37:47.373Z,29.01
2023-04-02T02:38:47.359Z,27.91
2023-04-02T02:39:47.385Z,26.25
2023-04-02T02:40:47.398Z,26.27
2023-04-02T02:41:47.427Z,27.84
2023-04-02T02:42:47.461Z,29.15
2023-04-02T02:43:47.437Z,29.72
2023-04-02T02:44:47.453Z,28.04
2023-04-02T02:45:47.479Z,28.60
2023-04-02T02:46:47.490Z,25.00
2023-04-02T02:47:47.575Z,28.68
2023-04-02T02:48:47.533Z,27.20
2023-04-02T02:49:47.565Z,27.53
2023-04-02T02:50:47.577Z,28.68
2023-04-02T02:51:47.591Z,29.36
2023-04-02T02:52:47.647Z,27.76
2023-04-02T02:53:47.635Z,28.46
2023-04-02T02:54:47.655Z,29.07
2023-04-02T02:55:47.682Z,29.53
2023-04-02T02:56:47.711Z,30.71
2023-04-02T02:57:47.727Z,30.57
2023-04-02T02:58:47.744Z,28.78
2023-04-02T02:59:47.762Z,29.57
2023-04-02T03:00:47.777Z,26.90
2023-04-02T03:01:47.829Z,29.34
2023-04-02T03:02:47.934Z,28.62
2023-04-02T03:03:47.985Z,30.22
2023-04-02T03:04:47.860Z,28.40
2023-04-02T03:05:47.894Z,28.40
2023-04-02T03:06:47.902Z,28.02
2023-04-02T03:07:47.933Z,27.43
2023-04-02T03:08:47.976Z,29.14
2023-04-02T03:09:47.957Z,28.74
2023-04-02T03:10:47.985Z,27.87
2023-04-02T03:11:47.987Z,30.84
2023-04-02T03:12:48.003Z,26.62
2023-04-02T03:13:48.027Z,30.63
2023-04-02T03:14:48.039Z,27.34
2023-04-02T03:15:48.077Z,27.91
2023-04-02T03:16:48.068Z,28.04
2023-04-02T03:17:48.119Z,28.15
2023-04-02T03:18:48.115Z,29.52
2023-04-02T03:19:48.122Z,28.33
2023-04-02T03:20:48.153Z,26.92
2023-04-02T03:21:48.169Z,28.82
2023-04-02T03:22:48.192Z,29.11
2023-04-02T03:23:48.223Z,31.67
2023-04-02T03:24:48.259Z,29.42
2023-04-02T03:25:48.260Z,29.30
2023-04-02T03:26:48.273Z,30.19
2023-04-02T03:27:48.297Z,26.77
2023-04-02T03:28:48.321Z,29.93
2023-04-02T03:29:48.332Z,28.72
2023-04-02T03:30:48.353Z,27.52
2023-04-02T03:31:48.367Z,29.28
2023-04-02T03:32:48.447Z,28.42
2023-04-02T03:33:48.415Z,29.86
2023-04-02T03:34:48.422Z,28.40
2023-04-02T03:35:48.451Z,27.77
2023-04-02T03:36:48.457Z,27.28
2023-04-02T03:37:48.475Z,29.17
2023-04-02T03:38:48.498Z,27.26
2023-04-02T03:39:48.515Z,27.72
2023-04-02T03:40:48.548Z,29.52
2023-04-02T03:41:48.534Z,26.65
2023-04-02T03:42:48.556Z,30.65
2023-04-02T03:43:48.568Z,27.74
2023-04-02T03:44:48.585Z,26.92
2023-04-02T03:45:48.586Z,28.13
2023-04-02T03:46:48.719Z,27.23
2023-04-02T03:47:48.662Z,28.55
2023-04-02T03:48:48.608Z,28.21
2023-04-02T03:49:48.617Z,28.14
2023-04-02T03:50:48.628Z,28.90
2023-04-02T03:51:48.633Z,30.04
2023-04-02T03:52:48.641Z,27.03
2023-04-02T03:53:48.642Z,27.32
2023-04-02T03:54:54.186Z,25.00
2023-04-02T03:55:48.652Z,25.42
2023-04-02T03:56:48.702Z,26.75
2023-04-02T03:57:48.647Z,27.10
2023-04-02T03:58:48.647Z,27.97
2023-04-02T03:59:48.649Z,30.39
2023-04-02T04:00:48.658Z,30.77
2023-04-02T04:01:48.682Z,27.76
2023-04-02T04:02:48.670Z,27.83
2023-04-02T04:03:48.720Z,27.09
2023-04-02T04:04:48.651Z,26.31
2023-04-02T04:05:48.646Z,25.49
2023-04-02T04:06:48.648Z,26.18
2023-04-02T04:07:48.644Z,26.50
2023-04-02T04:08:48.652Z,27.29
2023-04-02T04:09:48.664Z,28.42
2023-04-02T04:10:48.690Z,27.91
2023-04-02T04:11:48.652Z,26.67
2023-04-02T04:12:48.676Z,25.74
2023-04-02T04:13:48.653Z,25.20
2023-04-02T04:14:48.662Z,27.03
2023-04-02T04:15:48.646Z,27.42
2023-04-02T04:16:48.685Z,26.13
2023-04-02T04:17:48.697Z,27.26
2023-04-02T04:18:48.655Z,27.54
2023-04-02T04:19:48.651Z,27.92
2023-04-02T04:20:48.648Z,26.23
2023-04-02T04:21:48.654Z,25.71
2023-04-02T04:22:48.636Z,27.73
2023-04-02T04:23:48.636Z,28.86
2023-04-02T04:24:48.634Z,28.48
2023-04-02T04:25:48.634Z,27.59
2023-04-02T04:26:48.626Z,28.93
2023-04-02T04:27:48.629Z,26.31
2023-04-02T04:28:48.655Z,29.47
2023-04-02T04:29:48.650Z,27.42
2023-04-02T04:30:48.657Z,26.18
2023-04-02T04:31:48.679Z,27.37
2023-04-02T04:32:48.645Z,27.64
2023-04-02T04:33:48.609Z,26.49
2023-04-02T04:34:48.603Z,28.26
2023-04-02T04:35:48.631Z,26.74
2023-04-02T04:36:48.600Z,25.30
2023-04-02T04:37:48.592Z,26.69
2023-04-02T04:38:48.594Z,26.78
2023-04-02T04:39:48.593Z,25.99
2023-04-02T04:40:48.578Z,25.62
2023-04-02T04:41:48.572Z,25.85
2023-04-02T04:42:48.564Z,25.85
2023-04-02T04:43:48.555Z,27.13
2023-04-02T04:44:48.591Z,26.63
2023-04-02T04:45:48.567Z,29.94
2023-04-02T04:46:48.537Z,28.68
2023-04-02T04:47:48.575Z,27.76
2023-04-02T04:48:48.535Z,28.04
2023-04-02T04:49:48.539Z,28.75
2023-04-02T04:50:48.534Z,26.70
2023-04-02T04:51:48.542Z,27.88
2023-04-02T04:52:48.537Z,27.45
2023-04-02T04:53:48.537Z,25.99
2023-04-02T04:54:48.531Z,29.60
2023-04-02T04:55:48.530Z,26.42
2023-04-02T04:56:48.594Z,27.95
2023-04-02T04:57:48.536Z,27.80
2023-04-02T04:58:48.533Z,26.80
2023-04-02T04:59:48.532Z,25.47
2023-04-02T05:00:50.126Z,26.50
2023-04-02T05:01:48.801Z,32.44
2023-04-02T05:02:48.859Z,29.41
2023-04-02T05:03:48.723Z,27.17
2023-04-02T05:04:48.776Z,27.67
2023-04-02T05:05:48.720Z,29.02
2023-04-02T05:06:48.728Z,26.40
2023-04-02T05:07:48.729Z,25.67
2023-04-02T05:08:48.735Z,28.14
2023-04-02T05:09:48.725Z,29.18
2023-04-02T05:10:48.727Z,28.48
2023-04-02T05:11:48.736Z,26.39
2023-04-02T05:12:48.729Z,27.69
2023-04-02T05:13:48.726Z,26.09
2023-04-02T05:14:48.720Z,27.81
2023-04-02T05:15:48.733Z,27.00
2023-04-02T05:16:48.739Z,26.04
2023-04-02T05:17:48.889Z,26.76
2023-04-02T05:18:48.723Z,28.23
2023-04-02T05:19:48.733Z,26.42
2023-04-02T05:20:48.725Z,30.05
2023-04-02T05:21:48.723Z,27.56
2023-04-02T05:22:48.733Z,27.46
2023-04-02T05:23:49.163Z,28.16
2023-04-02T05:24:48.731Z,28.53
2023-04-02T05:25:48.733Z,27.47
2023-04-02T05:26:48.732Z,27.76
2023-04-02T05:27:48.743Z,26.58
2023-04-02T05:28:48.735Z,28.46
2023-04-02T05:29:48.733Z,27.54
2023-04-02T05:30:48.732Z,27.27
2023-04-02T05:31:48.851Z,26.58
2023-04-02T05:32:48.786Z,26.76
2023-04-02T05:33:48.730Z,26.33
2023-04-02T05:34:48.734Z,28.75
2023-04-02T05:35:48.764Z,27.63
2023-04-02T05:36:48.747Z,28.20
2023-04-02T05:37:48.734Z,30.43
2023-04-02T05:38:48.735Z,28.63
2023-04-02T05:39:48.716Z,29.63
2023-04-02T05:40:48.717Z,28.96
2023-04-02T05:41:48.713Z,29.51
2023-04-02T05:42:48.730Z,26.82
2023-04-02T05:43:48.713Z,28.87
2023-04-02T05:44:48.706Z,27.28
2023-04-02T05:45:48.705Z,26.76
2023-04-02T05:46:48.737Z,28.47
2023-04-02T05:47:48.709Z,27.78
2023-04-02T05:48:48.733Z,26.83
2023-04-02T05:49:48.690Z,28.41
2023-04-02T05:50:48.689Z,28.27
2023-04-02T05:51:48.683Z,28.56
2023-04-02T05:52:48.709Z,27.42
2023-04-02T05:53:48.686Z,29.70
2023-04-02T05:54:48.699Z,28.51
2023-04-02T05:55:48.680Z,27.56
2023-04-02T05:56:48.683Z,28.24
2023-04-02T05:57:59.087Z,27.60
2023-04-02T05:58:48.732Z,27.93
2023-04-02T05:59:48.662Z,28.45
2023-04-02T06:00:48.651Z,28.99
2023-04-02T06:01:48.648Z,29.72
2023-04-02T06:02:48.668Z,28.28
2023-04-02T06:03:48.668Z,27.83
2023-04-02T06:04:48.677Z,30.50
2023-04-02T06:05:48.630Z,29.29
2023-04-02T06:06:48.634Z,29.31
2023-04-02T06:07:48.627Z,29.81
2023-04-02T06:08:48.619Z,26.34
2023-04-02T06:09:48.618Z,27.58
2023-04-02T06:10:48.607Z,28.03
2023-04-02T06:11:48.602Z,27.54
2023-04-02T06:12:48.601Z,28.72
2023-04-02T06:13:48.598Z,25.44
2023-04-02T06:14:48.592Z,25.99
2023-04-02T06:15:48.577Z,28.22
2023-04-02T06:16:48.635Z,26.28
2023-04-02T06:17:48.625Z,26.60
2023-04-02T06:18:48.569Z,27.81
2023-04-02T06:19:48.566Z,27.00
2023-04-02T06:20:48.575Z,27.01
2023-04-02T06:21:48.548Z,28.17
2023-04-02T06:22:48.542Z,28.06
2023-04-02T06:23:48.535Z,25.56
2023-04-02T06:24:48.544Z,26.55
2023-04-02T06:25:48.527Z,28.21
2023-04-02T06:26:48.542Z,27.05
2023-04-02T06:27:48.542Z,25.97
2023-04-02T06:28:48.539Z,28.55
2023-04-02T06:29:48.521Z,25.00
2023-04-02T06:30:48.483Z,28.55
2023-04-02T06:31:49.563Z,30.48
2023-04-02T06:32:48.515Z,28.43
2023-04-02T06:33:48.467Z,25.76
2023-04-02T06:34:48.457Z,26.66
2023-04-02T06:35:48.470Z,27.37
2023-04-02T06:36:48.466Z,28.35
2023-04-02T06:37:48.439Z,28.20
2023-04-02T06:38:48.419Z,26.54
2023-04-02T06:39:48.413Z,26.20
2023-04-02T06:40:48.392Z,29.59
2023-04-02T06:41:48.388Z,27.75
2023-04-02T06:42:48.387Z,27.32
2023-04-02T06:43:48.377Z,28.47
2023-04-02T06:44:48.369Z,28.10
2023-04-02T06:45:48.388Z,26.35
2023-04-02T06:46:49.553Z,29.06
2023-04-02T06:47:48.407Z,30.71
2023-04-02T06:48:48.350Z,32.74
2023-04-02T06:49:48.366Z,29.27
2023-04-02T06:50:48.341Z,28.32
2023-04-02T06:51:48.348Z,30.46
2023-04-02T06:52:48.349Z,29.75
2023-04-02T06:53:48.318Z,29.28
2023-04-02T06:54:48.354Z,27.25
2023-04-02T06:55:48.312Z,25.90
2023-04-02T06:56:48.361Z,25.00
2023-04-02T06:57:48.303Z,25.78
2023-04-02T06:58:48.293Z,27.87
2023-04-02T06:59:48.318Z,29.47
2023-04-02T07:00:48.287Z,28.48
2023-04-02T07:01:48.353Z,28.73
2023-04-02T07:02:48.312Z,29.05
2023-04-02T07:03:48.276Z,28.61
2023-04-02T07:04:48.279Z,28.81
2023-04-02T07:05:48.267Z,27.58
2023-04-02T07:06:48.255Z,28.76
2023-04-02T07:07:48.265Z,27.73
2023-04-02T07:08:48.288Z,29.96
2023-04-02T07:09:48.253Z,30.65
2023-04-02T07:10:48.262Z,29.34
2023-04-02T07:11:48.249Z,30.23
2023-04-02T07:12:48.240Z,29.79
2023-04-02T07:13:48.234Z,31.90
2023-04-02T07:14:48.237Z,30.62
2023-04-02T07:15:48.250Z,32.16
2023-04-02T07:16:48.233Z,30.16
2023-04-02T07:17:48.311Z,28.76
2023-04-02T07:18:48.234Z,28.17
2023-04-02T07:19:48.218Z,27.30
2023-04-02T07:20:48.212Z,29.10
2023-04-02T07:21:48.213Z,28.84
2023-04-02T07:22:48.219Z,28.60
2023-04-02T07:23:48.202Z,30.08
2023-04-02T07:24:48.216Z,28.39
2023-04-02T07:25:48.185Z,29.49
2023-04-02T07:26:48.321Z,29.32
2023-04-02T07:27:48.304Z,27.47
2023-04-02T07:28:48.166Z,29.02
2023-04-02T07:29:48.159Z,30.09
2023-04-02T07:30:48.152Z,28.34
2023-04-02T07:31:48.243Z,28.24
2023-04-02T07:32:48.225Z,28.64
2023-04-02T07:33:48.138Z,28.84
2023-04-02T07:34:48.125Z,28.48
2023-04-02T07:35:48.184Z,28.12
2023-04-02T07:36:48.121Z,30.83
2023-04-02T07:37:48.114Z,29.93
2023-04-02T07:38:48.115Z,29.80
2023-04-02T07:39:48.116Z,30.73
2023-04-02T07:40:48.127Z,29.04
2023-04-02T07:41:48.172Z,28.63
2023-04-02T07:42:48.247Z,29.58
2023-04-02T07:43:48.303Z,28.37
2023-04-02T07:44:48.363Z,31.36
2023-04-02T07:45:48.436Z,29.75
2023-04-02T07:46:48.524Z,29.71
2023-04-02T07:47:48.578Z,30.16
2023-04-02T07:48:48.610Z,30.17
2023-04-02T07:49:48.671Z,30.86
2023-04-02T07:50:48.736Z,29.67
2023-04-02T07:51:48.798Z,31.40
2023-04-02T07:52:48.865Z,29.54
2023-04-02T07:53:48.927Z,29.36
2023-04-02T07:54:48.984Z,28.79
2023-04-02T07:55:49.030Z,30.41
2023-04-02T07:56:49.168Z,30.87
2023-04-02T07:57:49.169Z,29.39
2023-04-02T07:58:50.129Z,30.17
2023-04-02T07:59:49.283Z,29.45
2023-04-02T08:00:49.329Z,30.76
2023-04-02T08:01:49.413Z,28.85
2023-04-02T08:02:49.493Z,30.46
2023-04-02T08:03:50.040Z,30.39
2023-04-02T08:04:49.486Z,31.44
2023-04-02T08:05:49.481Z,33.95
2023-04-02T08:06:49.487Z,32.59
2023-04-02T08:07:49.464Z,29.49
2023-04-02T08:08:49.474Z,30.77
2023-04-02T08:09:49.454Z,30.10
2023-04-02T08:10:49.441Z,30.09
2023-04-02T08:11:49.439Z,29.67
2023-04-02T08:12:49.459Z,31.11
2023-04-02T08:13:49.430Z,29.90
2023-04-02T08:14:49.417Z,31.37
2023-04-02T08:15:49.408Z,31.12
2023-04-02T08:16:49.442Z,31.96
2023-04-02T08:17:49.429Z,32.53
2023-04-02T08:18:49.381Z,31.13
2023-04-02T08:19:54.620Z,32.03
2023-04-02T08:20:49.327Z,32.41
2023-04-02T08:21:49.306Z,33.06
2023-04-02T08:22:49.300Z,33.38
2023-04-02T08:23:49.278Z,33.11
2023-04-02T08:24:49.261Z,33.67
2023-04-02T08:25:49.239Z,34.01
2023-04-02T08:26:49.218Z,31.83
2023-04-02T08:27:49.208Z,31.97
2023-04-02T08:28:49.217Z,32.94
2023-04-02T08:29:49.172Z,30.66
2023-04-02T08:30:49.259Z,31.00
2023-04-02T08:31:49.139Z,32.13
2023-04-02T08:32:49.170Z,32.41
2023-04-02T08:33:49.112Z,32.95
2023-04-02T08:34:49.091Z,31.00
2023-04-02T08:35:49.116Z,31.02
2023-04-02T08:36:49.067Z,31.15
2023-04-02T08:37:49.057Z,30.97
2023-04-02T08:38:49.053Z,31.20
2023-04-02T08:39:49.040Z,30.19
2023-04-02T08:40:49.013Z,30.79
2023-04-02T08:41:49.005Z,30.92
2023-04-02T08:42:48.989Z,29.18
2023-04-02T08:43:48.986Z,31.17
2023-04-02T08:44:48.986Z,32.43
2023-04-02T08:45:49.005Z,31.58
2023-04-02T08:46:48.932Z,32.79
2023-04-02T08:47:48.980Z,32.11
2023-04-02T08:48:48.905Z,30.92
2023-04-02T08:49:48.908Z,30.65
2023-04-02T08:50:48.923Z,31.88
2023-04-02T08:51:48.956Z,31.49
2023-04-02T08:52:48.996Z,31.12
2023-04-02T08:53:49.041Z,32.62
2023-04-02T08:54:49.084Z,31.74
2023-04-02T08:55:49.714Z,31.60
2023-04-02T08:56:49.197Z,31.04
2023-04-02T08:57:49.200Z,31.58
2023-04-02T08:58:49.234Z,30.43
2023-04-02T08:59:49.285Z,31.37
2023-04-02T09:00:49.349Z,30.96
2023-04-02T09:01:49.407Z,31.31
2023-04-02T09:02:49.511Z,31.42
2023-04-02T09:03:49.476Z,31.64
2023-04-02T09:04:49.561Z,31.43
2023-04-02T09:05:49.622Z,31.33
2023-04-02T09:06:50.217Z,30.29
2023-04-02T09:07:49.703Z,31.29
2023-04-02T09:08:49.730Z,29.62
2023-04-02T09:09:49.822Z,30.83
2023-04-02T09:10:49.827Z,29.69
2023-04-02T09:11:49.877Z,30.69
2023-04-02T09:12:49.929Z,30.20
2023-04-02T09:13:49.983Z,30.58
2023-04-02T09:14:50.035Z,31.18
2023-04-02T09:15:50.110Z,30.63
2023-04-02T09:16:50.160Z,30.06
2023-04-02T09:17:54.099Z,30.72
2023-04-02T09:18:50.151Z,30.99
2023-04-02T09:19:50.136Z,31.25
2023-04-02T09:20:50.216Z,31.33
2023-04-02T09:21:50.212Z,30.37
2023-04-02T09:22:50.259Z,30.31
2023-04-02T09:23:50.336Z,29.74
2023-04-02T09:24:50.348Z,29.83
2023-04-02T09:26:02.959Z,29.30
2023-04-02T09:26:50.381Z,29.65
2023-04-02T09:27:50.382Z,30.34
2023-04-02T09:28:50.372Z,30.44
2023-04-02T09:29:50.364Z,30.88
2023-04-02T09:30:50.350Z,29.95
2023-04-02T09:31:50.442Z,32.36
2023-04-02T09:32:50.380Z,30.28
2023-04-02T09:33:50.395Z,30.38
2023-04-02T09:34:50.287Z,31.29
2023-04-02T09:35:50.305Z,29.40
2023-04-02T09:36:50.247Z,31.21
2023-04-02T09:37:50.248Z,30.21
2023-04-02T09:38:50.227Z,29.91
2023-04-02T09:39:50.215Z,30.73
2023-04-02T09:40:50.212Z,31.92
2023-04-02T09:41:59.093Z,30.65
2023-04-02T09:42:50.180Z,31.01
2023-04-02T09:43:50.173Z,31.84
2023-04-02T09:44:50.159Z,32.35
2023-04-02T09:45:50.153Z,31.49
2023-04-02T09:46:50.182Z,32.35
2023-04-02T09:47:50.148Z,32.11
2023-04-02T09:48:50.135Z,30.31
2023-04-02T09:49:50.126Z,32.09
2023-04-02T09:50:50.077Z,32.17
2023-04-02T09:51:50.064Z,31.05
2023-04-02T09:52:50.049Z,32.42
2023-04-02T09:53:50.055Z,30.01
2023-04-02T09:54:50.026Z,30.80
2023-04-02T09:55:50.015Z,31.67
2023-04-02T09:56:50.031Z,30.85
2023-04-02T09:57:49.990Z,32.75
2023-04-02T09:58:49.972Z,31.46
2023-04-02T09:59:49.959Z,31.72
2023-04-02T10:00:49.978Z,32.11
2023-04-02T10:01:49.928Z,31.89
2023-04-02T10:02:49.980Z,33.28
2023-04-02T10:03:49.898Z,31.75
2023-04-02T10:04:50.017Z,33.55
2023-04-02T10:05:49.873Z,31.92
2023-04-02T10:06:49.865Z,31.47
2023-04-02T10:07:49.837Z,31.79
2023-04-02T10:08:48.826Z,32.32
2023-04-02T10:09:49.813Z,32.98
2023-04-02T10:10:49.849Z,32.58
2023-04-02T10:11:49.886Z,33.99
2023-04-02T10:12:49.909Z,33.52
2023-04-02T10:13:49.943Z,32.12
2023-04-02T10:14:49.975Z,33.22
2023-04-02T10:15:50.178Z,33.47
2023-04-02T10:16:50.114Z,31.80
2023-04-02T10:17:50.106Z,32.77
2023-04-02T10:18:50.096Z,31.96
2023-04-02T10:19:50.128Z,32.73
2023-04-02T10:20:51.576Z,33.77
2023-04-02T10:21:50.228Z,34.14
2023-04-02T10:22:50.274Z,34.35
2023-04-02T10:23:50.289Z,35.41
2023-04-02T10:24:50.327Z,34.75
2023-04-02T10:25:50.333Z,36.04
2023-04-02T10:26:50.366Z,35.53
2023-04-02T10:27:50.380Z,35.47
2023-04-02T10:28:50.409Z,36.33
2023-04-02T10:29:50.431Z,35.48
2023-04-02T10:30:50.478Z,35.31
2023-04-02T10:31:50.487Z,35.62
2023-04-02T10:32:50.538Z,36.74
2023-04-02T10:33:50.558Z,36.98
2023-04-02T10:34:50.554Z,36.67
2023-04-02T10:35:50.627Z,38.05
2023-04-02T10:36:50.646Z,37.75
2023-04-02T10:37:50.642Z,39.02
2023-04-02T10:38:50.667Z,37.39
2023-04-02T10:39:50.687Z,37.97
2023-04-02T10:40:50.717Z,37.92
2023-04-02T10:41:50.738Z,38.00
2023-04-02T10:42:50.774Z,39.64
2023-04-02T10:43:50.795Z,38.78
2023-04-02T10:44:50.829Z,38.59
2023-04-02T10:45:50.879Z,38.42
2023-04-02T10:46:50.873Z,38.28
2023-04-02T10:47:50.932Z,38.20
2023-04-02T10:48:50.928Z,37.74
2023-04-02T10:49:50.980Z,39.43
2023-04-02T10:50:51.116Z,39.00
2023-04-02T10:51:50.998Z,37.17
2023-04-02T10:52:51.053Z,38.48
2023-04-02T10:53:51.042Z,38.32
2023-04-02T10:54:51.066Z,36.53
2023-04-02T10:55:51.093Z,38.52
2023-04-02T10:56:51.520Z,37.80
2023-04-02T10:57:51.127Z,38.00
2023-04-02T10:58:51.163Z,38.72
2023-04-02T10:59:51.189Z,38.32
2023-04-02T11:00:51.207Z,37.95
2023-04-02T11:01:51.253Z,37.96
2023-04-02T11:02:51.312Z,38.29
2023-04-02T11:03:51.337Z,38.93
2023-04-02T11:04:51.301Z,38.51
2023-04-02T11:05:51.326Z,37.46
2023-04-02T11:06:53.048Z,38.85
2023-04-02T11:07:51.565Z,39.14
2023-04-02T11:08:51.593Z,39.26
2023-04-02T11:09:51.586Z,39.59
2023-04-02T11:10:51.610Z,39.22
2023-04-02T11:11:51.641Z,40.14
2023-04-02T11:12:51.659Z,39.57
2023-04-02T11:13:51.685Z,39.46
2023-04-02T11:14:51.718Z,39.20
2023-04-02T11:15:51.742Z,39.93
2023-04-02T11:16:51.752Z,39.06
2023-04-02T11:17:51.859Z,38.05
2023-04-02T11:18:51.803Z,38.20
2023-04-02T11:19:51.836Z,36.84
2023-04-02T11:20:51.876Z,38.60
2023-04-02T11:22:50.852Z,38.40
2023-04-02T11:23:51.845Z,38.62
2023-04-02T11:24:51.868Z,38.44
2023-04-02T11:25:51.817Z,38.34
2023-04-02T11:26:51.809Z,38.62
2023-04-02T11:27:51.790Z,38.81
2023-04-02T11:28:51.786Z,37.68
2023-04-02T11:29:51.784Z,37.77
2023-04-02T11:30:51.759Z,38.37
2023-04-02T11:31:51.816Z,38.27
2023-04-02T11:32:51.840Z,38.13
2023-04-02T11:33:51.719Z,38.05
2023-04-02T11:35:04.999Z,40.12
2023-04-02T11:35:51.742Z,40.46
2023-04-02T11:36:51.685Z,41.22
2023-04-02T11:37:51.672Z,41.05
2023-04-02T11:38:52.455Z,41.19
2023-04-02T11:39:51.663Z,43.54
2023-04-02T11:40:51.673Z,41.34
2023-04-02T11:41:51.618Z,40.60
2023-04-02T11:42:51.608Z,39.60
2023-04-02T11:43:51.625Z,39.41
2023-04-02T11:44:51.589Z,39.85
2023-04-02T11:45:53.175Z,40.26
2023-04-02T11:46:51.685Z,41.67
2023-04-02T11:47:51.589Z,44.24
2023-04-02T11:48:51.535Z,41.74
2023-04-02T11:49:51.529Z,42.03
2023-04-02T11:50:51.520Z,40.14
2023-04-02T11:51:56.592Z,41.07
2023-04-02T11:52:51.505Z,41.47
2023-04-02T11:53:51.528Z,42.07
2023-04-02T11:54:51.492Z,41.89
2023-04-02T11:55:51.486Z,41.95
2023-04-02T11:56:51.544Z,41.56
2023-04-02T11:57:51.456Z,40.97
2023-04-02T11:58:51.442Z,40.49
2023-04-02T11:59:51.430Z,38.54
2023-04-02T12:00:51.420Z,38.56
2023-04-02T12:01:51.448Z,38.40
2023-04-02T12:02:51.390Z,38.17
2023-04-02T12:03:51.372Z,38.74
2023-04-02T12:04:51.381Z,38.20
2023-04-02T12:05:51.342Z,38.04
2023-04-02T12:06:51.316Z,38.29
2023-04-02T12:07:51.307Z,37.49
2023-04-02T12:08:57.584Z,38.14
2023-04-02T12:09:51.278Z,38.53
2023-04-02T12:10:51.255Z,39.15
2023-04-02T12:11:52.071Z,39.11
2023-04-02T12:12:51.250Z,40.11
2023-04-02T12:13:51.196Z,38.42
2023-04-02T12:14:51.188Z,38.24
2023-04-02T12:15:51.161Z,37.63
2023-04-02T12:16:51.224Z,38.11
2023-04-02T12:17:51.296Z,37.51
2023-04-02T12:18:51.114Z,37.55
2023-04-02T12:19:51.099Z,37.17
2023-04-02T12:20:51.103Z,39.82
2023-04-02T12:21:51.153Z,37.48
2023-04-02T12:22:51.190Z,36.63
2023-04-02T12:23:51.227Z,37.00
2023-04-02T12:24:51.273Z,37.44
2023-04-02T12:25:51.310Z,37.65
2023-04-02T12:26:51.358Z,35.81
2023-04-02T12:27:51.413Z,36.59
2023-04-02T12:28:51.457Z,38.36
2023-04-02T12:29:51.469Z,37.27
2023-04-02T12:30:51.560Z,37.42
2023-04-02T12:31:51.550Z,37.59
2023-04-02T12:32:52.582Z,36.93
2023-04-02T12:33:51.621Z,37.47
2023-04-02T12:34:51.650Z,35.96
2023-04-02T12:35:51.705Z,37.63
2023-04-02T12:36:51.713Z,37.07
2023-04-02T12:37:51.792Z,36.39
2023-04-02T12:38:51.791Z,37.93
2023-04-02T12:39:51.808Z,38.43
2023-04-02T12:40:51.848Z,38.07
2023-04-02T12:41:51.885Z,37.20
2023-04-02T12:42:51.902Z,38.56
2023-04-02T12:43:51.943Z,37.71
2023-04-02T12:44:51.999Z,37.78
2023-04-02T12:45:52.043Z,37.55
2023-04-02T12:46:52.051Z,37.49
2023-04-02T12:47:52.107Z,38.55
2023-04-02T12:48:52.108Z,37.44
2023-04-02T12:49:52.141Z,37.51
2023-04-02T12:50:52.183Z,37.92
2023-04-02T12:51:52.225Z,37.09
2023-04-02T12:52:52.237Z,37.79
2023-04-02T12:53:52.269Z,36.98